createdAt,value
2023-03-06T00:00:41.595Z,6.26
2023-03-06T00:20:41.613Z,6.26
2023-03-06T00:40:41.591Z,6.26
2023-03-06T01:00:41.562Z,6.26
2023-03-06T01:20:41.533Z,6.26
2023-03-06T01:40:41.268Z,6.25
2023-03-06T02:00:41.521Z,6.25
2023-03-06T02:20:41.520Z,6.25
2023-03-06T02:40:41.482Z,6.25
2023-03-06T03:00:41.553Z,6.25
2023-03-06T03:20:41.496Z,6.25
2023-03-06T03:40:41.520Z,6.24
2023-03-06T04:00:41.472Z,6.24
2023-03-06T04:20:41.184Z,6.24
2023-03-06T04:40:42.952Z,6.23
2023-03-06T05:00:41.481Z,6.23
2023-03-06T05:20:41.467Z,6.22
2023-03-06T05:40:41.432Z,6.22
2023-03-06T06:00:41.420Z,6.22
2023-03-06T06:20:41.427Z,6.21
2023-03-06T06:40:41.382Z,6.2
2023-03-06T07:00:41.427Z,6.2
2023-03-06T07:20:41.411Z,6.19
2023-03-06T07:40:41.388Z,6.18
2023-03-06T08:00:41.378Z,6.18
2023-03-06T08:40:41.357Z,6.17
2023-03-06T09:00:41.362Z,6.17
2023-03-06T09:20:41.339Z,6.17
2023-03-06T09:40:41.302Z,6.17
2023-03-06T10:00:41.319Z,6.16
2023-03-06T10:20:41.079Z,6.16
2023-03-06T10:40:41.297Z,6.16
2023-03-06T11:00:41.308Z,6.16
2023-03-06T11:20:50.327Z,6.15
2023-03-06T11:40:41.264Z,6.15
2023-03-06T12:00:41.254Z,6.14
2023-03-06T12:20:41.291Z,6.14
2023-03-06T12:40:41.242Z,6.13
2023-03-06T13:00:41.207Z,6.13
2023-03-06T13:20:41.187Z,6.13
2023-03-06T13:40:41.174Z,6.12
2023-03-06T14:00:41.172Z,6.12
2023-03-06T14:20:41.337Z,6.12
2023-03-06T14:40:41.158Z,6.12
2023-03-06T15:00:41.215Z,6.12
2023-03-06T15:20:41.056Z,6.12
2023-03-06T15:40:41.038Z,6.12
2023-03-06T16:00:41.047Z,6.12
2023-03-06T16:20:41.037Z,6.12
2023-03-06T16:40:41.098Z,6.13
2023-03-06T17:00:40.964Z,6.13
2023-03-06T17:20:40.956Z,6.14
2023-03-06T17:40:40.971Z,6.14
2023-03-06T18:00:40.686Z,6.14
2023-03-06T18:20:40.931Z,6.15
2023-03-06T18:40:40.931Z,6.15
2023-03-06T19:00:40.909Z,6.15
2023-03-06T19:20:40.898Z,6.16
2023-03-06T19:40:40.901Z,6.16
2023-03-06T20:00:40.605Z,6.16
2023-03-06T20:20:40.893Z,6.16
2023-03-06T20:40:40.943Z,6.16
2023-03-06T21:00:40.590Z,6.16
2023-03-06T21:20:40.840Z,6.16
2023-03-06T21:40:40.854Z,6.16
2023-03-06T22:00:40.858Z,6.16
2023-03-06T22:20:40.817Z,6.16
2023-03-06T22:40:40.801Z,6.16
2023-03-06T23:00:40.789Z,6.16
2023-03-06T23:20:40.826Z,6.16
2023-03-06T23:40:40.833Z,6.16
